Time;durP1;ratioP1;P1;durP2;ratioP2;P2;SDS_P1;SDS_P2;PMS_P1;PMS_P2;Temp;Humidity;BMP_temperature;BMP_pressure;BME280_temperature;BME280_humidity;BME280_pressure;Samples;Min_cycle;Max_cycle;Signal;HPM_P1;HPM_P2
2022/12/16 00:01:52;;;;;;;22.00;7.35;;;;;;;;;;7389344;19;19999;-75
2022/12/16 00:04:17;;;;;;;16.40;7.80;;;;;;;;;;7390408;19;20010;-74
2022/12/16 00:06:42;;;;;;;15.45;6.60;;;;;;;;;;7390727;19;20015;-74
2022/12/16 00:09:08;;;;;;;19.27;7.70;;;;;;;;;;7389610;19;20443;-76
2022/12/16 00:11:34;;;;;;;21.48;9.18;;;;;;;;;;7389037;19;20467;-75
2022/12/16 00:13:59;;;;;;;21.02;7.88;;;;;;;;;;7390637;19;20339;-76
2022/12/16 00:16:25;;;;;;;23.73;7.93;;;;;;;;;;7390772;19;20625;-74
2022/12/16 00:18:50;;;;;;;18.90;7.40;;;;;;;;;;7390704;19;19999;-75
2022/12/16 00:21:18;;;;;;;17.05;7.57;;;;;;;;;;7388850;19;20003;-75
2022/12/16 00:23:44;;;;;;;16.17;6.97;;;;;;;;;;7389870;19;20016;-75
2022/12/16 00:26:10;;;;;;;17.15;6.72;;;;;;;;;;7389105;19;19991;-75
2022/12/16 00:28:37;;;;;;;16.65;6.50;;;;;;;;;;7384844;19;20358;-75
2022/12/16 00:31:03;;;;;;;17.08;7.00;;;;;;;;;;7385367;19;20018;-74
2022/12/16 00:33:28;;;;;;;18.92;7.75;;;;;;;;;;7385250;19;19998;-75
2022/12/16 00:35:54;;;;;;;14.25;7.63;;;;;;;;;;7389571;19;20056;-74
2022/12/16 00:38:20;;;;;;;20.02;6.95;;;;;;;;;;7386423;19;20686;-75
2022/12/16 00:40:46;;;;;;;18.42;7.68;;;;;;;;;;7385455;19;20027;-75
2022/12/16 00:43:12;;;;;;;13.38;5.28;;;;;;;;;;7388655;19;19991;-73
2022/12/16 00:45:38;;;;;;;18.45;7.85;;;;;;;;;;7388666;19;20456;-73
2022/12/16 00:48:04;;;;;;;17.13;7.32;;;;;;;;;;7387399;19;19994;-74
2022/12/16 00:50:30;;;;;;;18.17;8.10;;;;;;;;;;7387386;19;20421;-76
2022/12/16 00:52:55;;;;;;;17.80;6.63;;;;;;;;;;7387612;19;19994;-75
2022/12/16 00:55:21;;;;;;;18.23;8.20;;;;;;;;;;7388145;19;20003;-75
2022/12/16 00:57:46;;;;;;;17.63;6.47;;;;;;;;;;7386962;19;20373;-74
2022/12/16 01:00:14;;;;;;;24.65;6.63;;;;;;;;;;7387441;19;20483;-75
2022/12/16 01:02:43;;;;;;;13.80;6.30;;;;;;;;;;7388179;19;20010;-75
2022/12/16 01:05:11;;;;;;;15.57;6.72;;;;;;;;;;7387899;19;19999;-74
2022/12/16 01:07:37;;;;;;;14.80;6.53;;;;;;;;;;7385690;19;20037;-75
2022/12/16 01:10:04;;;;;;;17.50;5.38;;;;;;;;;;7386985;19;20002;-76
2022/12/16 01:12:29;;;;;;;14.20;5.68;;;;;;;;;;7387479;19;20052;-74
2022/12/16 01:14:54;;;;;;;11.88;5.43;;;;;;;;;;7385777;19;19994;-75
2022/12/16 01:17:20;;;;;;;12.05;5.40;;;;;;;;;;7387771;19;20007;-75
2022/12/16 01:19:45;;;;;;;13.10;6.22;;;;;;;;;;7386793;19;20006;-75
2022/12/16 01:22:11;;;;;;;17.00;7.15;;;;;;;;;;7387509;19;19999;-76
2022/12/16 01:24:36;;;;;;;12.82;6.43;;;;;;;;;;7386762;19;19994;-73
2022/12/16 01:27:02;;;;;;;13.55;5.20;;;;;;;;;;7387360;19;20005;-75
2022/12/16 01:29:27;;;;;;;17.13;5.50;;;;;;;;;;7387179;19;20401;-74
2022/12/16 01:31:52;;;;;;;13.30;6.13;;;;;;;;;;7386360;19;19999;-75
2022/12/16 01:34:18;;;;;;;14.13;6.10;;;;;;;;;;7386166;19;20484;-74
2022/12/16 01:36:43;;;;;;;18.40;6.20;;;;;;;;;;7389262;19;19990;-75
2022/12/16 01:39:09;;;;;;;14.70;5.60;;;;;;;;;;7387662;19;19999;-75
2022/12/16 01:41:35;;;;;;;12.65;5.40;;;;;;;;;;7386241;19;20018;-75
2022/12/16 01:44:16;;;;;;;14.32;5.80;;;;;;;;;;7386593;19;20027;-76
2022/12/16 01:46:44;;;;;;;14.68;7.13;;;;;;;;;;7387816;19;20010;-75
2022/12/16 01:49:18;;;;;;;11.82;5.82;;;;;;;;;;7387311;19;20005;-75
2022/12/16 01:51:43;;;;;;;15.98;6.45;;;;;;;;;;7385186;19;19995;-76
2022/12/16 01:54:23;;;;;;;14.48;6.40;;;;;;;;;;7386726;19;19999;-74
2022/12/16 01:56:52;;;;;;;19.65;6.72;;;;;;;;;;7385543;19;20452;-75
2022/12/16 01:59:19;;;;;;;12.02;5.60;;;;;;;;;;7387008;19;20015;-75
2022/12/16 02:01:47;;;;;;;17.42;5.55;;;;;;;;;;7385027;19;20082;-73
2022/12/16 02:04:12;;;;;;;11.23;4.72;;;;;;;;;;7386614;19;19998;-75
2022/12/16 02:06:38;;;;;;;9.02;4.05;;;;;;;;;;7387480;19;19999;-75
2022/12/16 02:09:10;;;;;;;13.65;4.57;;;;;;;;;;7385042;19;20479;-75
2022/12/16 02:11:57;;;;;;;12.32;5.10;;;;;;;;;;7385443;19;20001;-75
2022/12/16 02:14:36;;;;;;;10.60;4.00;;;;;;;;;;7386134;19;20003;-75
2022/12/16 02:17:14;;;;;;;9.40;4.75;;;;;;;;;;7386623;19;20015;-75
2022/12/16 02:19:48;;;;;;;14.68;5.78;;;;;;;;;;7386020;19;20066;-74
2022/12/16 02:22:39;;;;;;;24.15;6.22;;;;;;;;;;7386827;19;19995;-74
2022/12/16 02:25:24;;;;;;;14.15;6.47;;;;;;;;;;7393062;19;20074;-75
2022/12/16 02:28:11;;;;;;;12.95;5.55;;;;;;;;;;7391849;19;20011;-74
2022/12/16 02:30:55;;;;;;;15.70;5.57;;;;;;;;;;7392174;19;20398;-75
2022/12/16 02:33:26;;;;;;;14.50;5.50;;;;;;;;;;7391257;19;20004;-75
2022/12/16 02:36:01;;;;;;;14.02;5.90;;;;;;;;;;7396505;19;19994;-76
2022/12/16 02:38:40;;;;;;;8.75;3.63;;;;;;;;;;7393060;19;20451;-75
2022/12/16 02:41:14;;;;;;;13.38;5.43;;;;;;;;;;7389529;19;20009;-75
2022/12/16 02:43:51;;;;;;;10.65;4.88;;;;;;;;;;7392363;19;20005;-75
2022/12/16 02:46:18;;;;;;;12.43;4.78;;;;;;;;;;7394436;19;20077;-75
2022/12/16 02:48:43;;;;;;;21.55;6.20;;;;;;;;;;7389622;19;19999;-73
2022/12/16 02:51:09;;;;;;;14.75;5.03;;;;;;;;;;7390564;19;20298;-75
2022/12/16 02:53:38;;;;;;;10.73;3.92;;;;;;;;;;7392783;19;20025;-74
2022/12/16 02:56:51;;;;;;;11.88;4.85;;;;;;;;;;7392316;19;20436;-73
2022/12/16 02:59:26;;;;;;;10.05;3.83;;;;;;;;;;7389270;19;19995;-73
2022/12/16 03:02:01;;;;;;;9.68;4.45;;;;;;;;;;7389331;19;20015;-71
2022/12/16 03:04:37;;;;;;;5.05;2.97;;;;;;;;;;7390668;19;20007;-74
2022/12/16 03:07:06;;;;;;;9.02;3.92;;;;;;;;;;7389835;19;20042;-72
2022/12/16 03:09:35;;;;;;;8.10;4.28;;;;;;;;;;7392114;19;20070;-71
2022/12/16 03:12:04;;;;;;;15.15;5.70;;;;;;;;;;7389786;19;20502;-73
2022/12/16 03:14:33;;;;;;;8.77;4.18;;;;;;;;;;7391321;19;19999;-73
2022/12/16 03:16:59;;;;;;;13.75;5.13;;;;;;;;;;7391709;19;20002;-73
2022/12/16 03:19:26;;;;;;;12.35;5.05;;;;;;;;;;7391736;19;20689;-72
2022/12/16 03:21:59;;;;;;;9.38;5.00;;;;;;;;;;7389541;19;20504;-73
2022/12/16 03:24:24;;;;;;;8.80;3.97;;;;;;;;;;7389633;19;20359;-73
2022/12/16 03:27:18;;;;;;;12.25;5.15;;;;;;;;;;7395025;19;20003;-71
2022/12/16 03:29:52;;;;;;;13.13;4.07;;;;;;;;;;7391273;19;20006;-72
2022/12/16 03:32:28;;;;;;;10.60;3.90;;;;;;;;;;7388777;19;20015;-71
2022/12/16 03:35:22;;;;;;;8.90;4.22;;;;;;;;;;7388150;19;19999;-72
2022/12/16 03:37:54;;;;;;;8.98;3.53;;;;;;;;;;7390961;19;20006;-73
2022/12/16 03:40:21;;;;;;;11.55;4.53;;;;;;;;;;7394843;19;20350;-73
2022/12/16 03:42:47;;;;;;;12.13;3.92;;;;;;;;;;7392834;19;20428;-73
2022/12/16 03:45:18;;;;;;;9.68;4.15;;;;;;;;;;7391144;19;20006;-71
2022/12/16 03:47:51;;;;;;;8.05;3.53;;;;;;;;;;7390231;19;20026;-73
2022/12/16 03:50:19;;;;;;;7.85;3.20;;;;;;;;;;7391067;19;20008;-72
2022/12/16 03:52:45;;;;;;;10.25;4.57;;;;;;;;;;7393769;19;20006;-73
2022/12/16 03:55:10;;;;;;;10.93;4.00;;;;;;;;;;7390399;19;20001;-73
2022/12/16 03:57:35;;;;;;;10.68;4.47;;;;;;;;;;7388976;19;19999;-72
2022/12/16 04:00:00;;;;;;;9.35;3.72;;;;;;;;;;7390024;19;20026;-73
2022/12/16 04:02:26;;;;;;;11.35;4.15;;;;;;;;;;7390623;19;20023;-73
2022/12/16 04:04:51;;;;;;;10.18;4.10;;;;;;;;;;7388805;19;20472;-73
2022/12/16 04:07:19;;;;;;;10.98;4.00;;;;;;;;;;7388170;19;19999;-73
2022/12/16 04:09:45;;;;;;;12.85;4.03;;;;;;;;;;7392026;19;20356;-72
2022/12/16 04:25:58;;;;;;;10.68;3.55;;;;;;;;;;7393878;19;20012;-73
2022/12/16 04:28:23;;;;;;;11.15;4.80;;;;;;;;;;7392054;19;20065;-73
2022/12/16 04:30:49;;;;;;;17.67;4.85;;;;;;;;;;7390522;19;20013;-72
